Været på Ålesund Lufhavn, Vigra (ENAL)

 

Time for time, neste 48 timer:

Detaljert varsel fra yr.no - 48 timer

Vindprognose for Breisundet:

Vindvarsel

Upper Winds 3000 fot akkurat nå:

ENAL akkurat nå:

  • METAR: 230150Z AUTO 33004KT 300V020 9999 -DZ BKN053/// OVC084/// 08/08 Q0999
  • TAF: TAF 221700Z 2218/2222 06012KT 9999 BKN050 TEMPO 2218/2222 12012KT RA